Archival Weather

Václav Havel Intl Apt

Prague, Czechia (LKPR)

Report from: Monday, May 29, 2023 11:30 PM CEST
Current time: Friday, July 19, 2024 4:54 AM CEST

Current weather – Weather history – Daily summaries
Weather forecast

Temperature13.0°C (55.4°F)
Dew point7.0°C (44.6°F)
Winds 3 kts (1.5 m/s, 3.5 mph) North-Northwest (330°)
Clouds Sky clear
Altimeter30.12 in.Hg (1020 mB)
Relative humidity67 %
Density altitude-321 ft. (-98 m)
Remarks Ceiling and visibility OK
No significant changes expected in the next two hours
Flight conditions Visual Meteorological Conditions
Raw dataLKPR 292130Z 33003KT CAVOK 13/07 Q1020 NOSIG
An error has occurred. This application may no longer respond until reloaded. Reload 🗙